createdAt,value
2023-05-20T00:01:18.431Z,14.57
2023-05-20T00:03:46.190Z,14.53
2023-05-20T00:06:13.256Z,14.49
2023-05-20T00:08:40.000Z,14.45
2023-05-20T00:11:07.629Z,14.42
2023-05-20T00:13:35.798Z,14.38
2023-05-20T00:16:03.002Z,14.35
2023-05-20T00:18:30.319Z,14.32
2023-05-20T00:20:57.241Z,14.30
2023-05-20T00:23:24.212Z,14.27
2023-05-20T00:25:51.229Z,14.23
2023-05-20T00:28:19.208Z,14.21
2023-05-20T00:30:45.928Z,14.17
2023-05-20T00:33:13.488Z,14.15
2023-05-20T00:35:40.463Z,14.12
2023-05-20T00:38:07.116Z,14.11
2023-05-20T00:40:34.045Z,14.09
2023-05-20T00:43:02.197Z,14.08
2023-05-20T00:45:29.167Z,14.07
2023-05-20T00:47:59.182Z,14.07
2023-05-20T00:50:26.316Z,14.06
2023-05-20T00:52:54.980Z,14.07
2023-05-20T00:55:22.193Z,14.07
2023-05-20T00:57:49.187Z,14.07
2023-05-20T01:00:16.132Z,14.07
2023-05-20T01:02:43.311Z,14.08
2023-05-20T01:05:10.569Z,14.08
2023-05-20T01:07:37.654Z,14.07
2023-05-20T01:10:06.770Z,14.07
2023-05-20T01:12:37.722Z,14.06
2023-05-20T01:15:06.897Z,14.04
2023-05-20T01:17:37.346Z,14.00
2023-05-20T01:20:06.850Z,13.97
2023-05-20T01:22:38.910Z,13.95
2023-05-20T01:25:06.157Z,13.93
2023-05-20T01:27:33.200Z,13.91
2023-05-20T01:30:00.364Z,13.90
2023-05-20T01:32:42.613Z,13.89
2023-05-20T01:35:09.834Z,13.89
2023-05-20T01:37:39.100Z,13.91
2023-05-20T01:40:10.155Z,13.92
2023-05-20T01:42:37.418Z,13.93
2023-05-20T01:45:05.770Z,13.95
2023-05-20T01:47:32.792Z,13.97
2023-05-20T01:50:00.344Z,13.98
2023-05-20T01:52:27.333Z,13.99
2023-05-20T01:54:54.265Z,14.01
2023-05-20T01:57:21.967Z,14.01
2023-05-20T01:59:49.604Z,14.02
2023-05-20T02:02:16.792Z,14.02
2023-05-20T02:04:50.481Z,14.01
2023-05-20T02:07:20.538Z,14.00
2023-05-20T02:09:47.637Z,14.00
2023-05-20T02:12:17.659Z,14.00
2023-05-20T02:14:45.703Z,13.99
2023-05-20T02:17:15.925Z,13.98
2023-05-20T02:19:46.880Z,13.96
2023-05-20T02:22:14.210Z,13.95
2023-05-20T02:24:42.672Z,13.93
2023-05-20T02:27:09.659Z,13.92
2023-05-20T02:29:37.963Z,13.90
2023-05-20T02:32:06.091Z,13.89
2023-05-20T02:34:33.300Z,13.87
2023-05-20T02:37:01.131Z,13.85
2023-05-20T02:39:29.493Z,13.84
2023-05-20T02:41:56.554Z,13.84
2023-05-20T02:44:25.931Z,13.83
2023-05-20T02:46:52.885Z,13.82
2023-05-20T02:49:21.465Z,13.81
2023-05-20T02:51:48.931Z,13.81
2023-05-20T02:54:16.093Z,13.81
2023-05-20T02:56:43.257Z,13.83
2023-05-20T02:59:10.688Z,13.84
2023-05-20T03:01:39.883Z,13.87
2023-05-20T03:04:06.776Z,13.90
2023-05-20T03:06:34.098Z,13.94
2023-05-20T03:09:01.166Z,13.97
2023-05-20T03:11:28.565Z,14.01
2023-05-20T03:13:55.437Z,14.05
2023-05-20T03:16:22.253Z,14.08
2023-05-20T03:18:49.320Z,14.12
2023-05-20T03:21:17.189Z,14.15
2023-05-20T03:23:44.106Z,14.19
2023-05-20T03:26:11.152Z,14.24
2023-05-20T03:28:38.307Z,14.27
2023-05-20T03:31:05.945Z,14.32
2023-05-20T03:33:35.085Z,14.36
2023-05-20T03:36:03.639Z,14.38
2023-05-20T03:38:31.010Z,14.40
2023-05-20T03:40:57.929Z,14.43
2023-05-20T03:43:25.313Z,14.46
2023-05-20T03:45:52.139Z,14.50
2023-05-20T03:48:19.718Z,14.52
2023-05-20T03:50:46.921Z,14.57
2023-05-20T03:53:13.893Z,14.62
2023-05-20T03:55:42.064Z,14.67
2023-05-20T03:58:09.106Z,14.73
2023-05-20T04:00:36.881Z,14.77
2023-05-20T04:03:04.016Z,14.81
2023-05-20T04:05:31.038Z,14.86
2023-05-20T04:07:58.937Z,14.91
2023-05-20T04:10:26.702Z,14.96
2023-05-20T04:12:53.670Z,15.01
2023-05-20T04:15:23.559Z,15.07
2023-05-20T04:17:54.504Z,15.15
2023-05-20T04:20:21.679Z,15.24
2023-05-20T04:22:48.697Z,15.34
2023-05-20T04:25:16.560Z,15.46
2023-05-20T04:27:43.743Z,15.58
2023-05-20T04:30:12.115Z,15.72
2023-05-20T04:32:42.610Z,15.88
2023-05-20T04:35:11.694Z,16.06
2023-05-20T04:37:39.066Z,16.23
2023-05-20T04:40:08.876Z,16.41
2023-05-20T04:42:37.269Z,16.61
2023-05-20T04:45:05.670Z,16.81
2023-05-20T04:47:38.177Z,17.03
2023-05-20T04:50:13.047Z,17.26
2023-05-20T04:52:42.666Z,17.49
2023-05-20T04:55:10.052Z,17.71
2023-05-20T04:57:41.396Z,17.93
2023-05-20T05:00:09.956Z,18.18
2023-05-20T05:02:37.950Z,18.44
2023-05-20T05:05:05.779Z,18.70
2023-05-20T05:07:32.956Z,18.93
2023-05-20T05:10:00.285Z,19.16
2023-05-20T05:12:30.320Z,19.37
2023-05-20T05:15:03.465Z,19.63
2023-05-20T05:17:30.761Z,19.94
2023-05-20T05:19:57.927Z,20.25
2023-05-20T05:22:28.149Z,20.58
2023-05-20T05:24:55.983Z,20.91
2023-05-20T05:27:23.093Z,21.21
2023-05-20T05:29:50.267Z,21.46
2023-05-20T05:32:17.625Z,21.74
2023-05-20T05:34:44.748Z,22.00
2023-05-20T05:37:11.820Z,22.23
2023-05-20T05:39:39.130Z,22.51
2023-05-20T05:42:06.140Z,22.78
2023-05-20T05:44:33.891Z,23.02
2023-05-20T05:47:01.197Z,23.29
2023-05-20T05:49:30.633Z,23.55
2023-05-20T05:51:57.578Z,23.83
2023-05-20T05:54:24.933Z,24.07
2023-05-20T05:56:52.602Z,24.40
2023-05-20T05:59:19.667Z,24.73
2023-05-20T06:01:46.711Z,25.05
2023-05-20T06:04:14.934Z,25.40
2023-05-20T06:06:41.915Z,25.71
2023-05-20T06:09:09.091Z,25.97
2023-05-20T06:11:36.593Z,26.19
2023-05-20T06:14:04.021Z,26.45
2023-05-20T06:16:31.634Z,26.71
2023-05-20T06:19:03.278Z,26.95
2023-05-20T06:21:32.415Z,27.19
2023-05-20T06:23:59.221Z,27.45
2023-05-20T06:26:26.619Z,27.69
2023-05-20T06:28:53.772Z,27.95
2023-05-20T06:31:20.672Z,28.21
2023-05-20T06:33:48.442Z,28.49
2023-05-20T06:36:16.608Z,28.77
2023-05-20T06:38:43.569Z,29.02
2023-05-20T06:41:12.445Z,29.18
2023-05-20T06:43:40.022Z,29.34
2023-05-20T06:46:25.920Z,29.55
2023-05-20T06:48:56.519Z,29.73
2023-05-20T06:51:25.929Z,29.98
2023-05-20T06:53:56.154Z,30.26
2023-05-20T06:56:23.437Z,30.52
2023-05-20T06:58:50.310Z,30.70
2023-05-20T07:01:18.348Z,30.89
2023-05-20T07:03:46.282Z,31.12
2023-05-20T07:06:13.562Z,31.34
2023-05-20T07:08:40.883Z,31.53
2023-05-20T07:11:08.371Z,31.74
2023-05-20T07:13:35.598Z,31.92
2023-05-20T07:16:03.124Z,32.13
2023-05-20T07:18:30.303Z,32.20
2023-05-20T07:20:57.315Z,32.21
2023-05-20T07:23:47.536Z,32.26
2023-05-20T07:26:15.561Z,32.48
2023-05-20T07:28:43.681Z,32.68
2023-05-20T07:31:11.077Z,32.88
2023-05-20T07:33:46.512Z,33.16
2023-05-20T07:36:13.419Z,33.39
2023-05-20T07:38:49.950Z,33.56
2023-05-20T07:41:28.928Z,33.81
2023-05-20T07:43:55.992Z,34.04
2023-05-20T07:46:23.050Z,34.20
2023-05-20T07:48:50.274Z,34.29
2023-05-20T07:51:18.436Z,34.30
2023-05-20T07:53:45.488Z,34.33
2023-05-20T07:56:12.543Z,34.45
2023-05-20T07:58:42.494Z,34.65
2023-05-20T08:01:11.370Z,34.82
2023-05-20T08:03:38.342Z,34.96
2023-05-20T08:06:11.341Z,35.13
2023-05-20T08:08:40.922Z,35.30
2023-05-20T08:11:12.098Z,35.49
2023-05-20T08:13:40.191Z,35.55
2023-05-20T08:16:07.911Z,35.55
2023-05-20T08:18:36.105Z,35.71
2023-05-20T08:21:02.930Z,35.84
2023-05-20T08:23:30.214Z,35.97
2023-05-20T08:26:01.153Z,36.15
2023-05-20T08:28:30.340Z,36.26
2023-05-20T08:30:58.689Z,36.30
2023-05-20T08:33:25.404Z,36.34
2023-05-20T08:35:52.417Z,36.34
2023-05-20T08:38:19.465Z,36.25
2023-05-20T08:40:46.518Z,36.23
2023-05-20T08:43:13.485Z,36.35
2023-05-20T08:45:40.212Z,36.47
2023-05-20T08:48:12.313Z,36.50
2023-05-20T08:50:39.607Z,36.50
2023-05-20T08:53:06.693Z,36.49
2023-05-20T08:55:41.596Z,36.59
2023-05-20T08:58:09.722Z,36.73
2023-05-20T09:00:37.917Z,36.80
2023-05-20T09:03:04.808Z,36.79
2023-05-20T09:05:32.257Z,36.69
2023-05-20T09:08:12.140Z,36.55
2023-05-20T09:10:39.961Z,36.54
2023-05-20T09:13:07.727Z,36.57
2023-05-20T09:15:35.945Z,36.48
2023-05-20T09:18:05.117Z,36.42
2023-05-20T09:20:37.066Z,36.42
2023-05-20T09:23:06.051Z,36.44
2023-05-20T09:25:34.075Z,36.54
2023-05-20T09:28:02.601Z,36.61
2023-05-20T09:30:29.641Z,36.60
2023-05-20T09:32:58.324Z,36.72
2023-05-20T09:35:26.425Z,36.79
2023-05-20T09:37:55.231Z,36.69
2023-05-20T09:40:28.576Z,36.52
2023-05-20T09:43:03.400Z,36.43
2023-05-20T09:45:30.340Z,36.45
2023-05-20T09:47:57.474Z,36.48
2023-05-20T09:50:25.071Z,36.54
2023-05-20T09:52:53.267Z,36.58
2023-05-20T09:55:21.990Z,36.53
2023-05-20T09:57:48.790Z,36.40
2023-05-20T10:00:18.924Z,36.23
2023-05-20T10:02:48.076Z,36.12
2023-05-20T10:05:40.847Z,36.09
2023-05-20T10:08:23.142Z,36.06
2023-05-20T10:10:50.506Z,35.98
2023-05-20T10:13:36.182Z,35.93
2023-05-20T10:16:24.032Z,35.88
2023-05-20T10:19:10.046Z,35.92
2023-05-20T10:21:37.150Z,35.87
2023-05-20T10:24:08.188Z,35.65
2023-05-20T10:26:36.877Z,35.33
2023-05-20T10:29:17.064Z,35.12
2023-05-20T10:31:45.377Z,34.89
2023-05-20T10:34:18.961Z,34.54
2023-05-20T10:37:06.773Z,34.09
2023-05-20T10:39:37.170Z,33.65
2023-05-20T10:42:10.656Z,33.31
2023-05-20T10:44:47.548Z,33.02
2023-05-20T10:49:49.109Z,32.38
2023-05-20T10:52:19.147Z,32.06
2023-05-20T10:54:48.769Z,31.81
2023-05-20T10:57:17.720Z,31.59
2023-05-20T10:59:44.600Z,31.42
2023-05-20T11:02:12.871Z,31.21
2023-05-20T11:04:39.898Z,31.02
2023-05-20T11:07:06.956Z,30.86
2023-05-20T11:09:34.497Z,30.65
2023-05-20T11:12:01.636Z,30.47
